Time;durP1;ratioP1;P1;durP2;ratioP2;P2;SDS_P1;SDS_P2;PMS_P1;PMS_P2;Temp;Humidity;BMP_temperature;BMP_pressure;BME280_temperature;BME280_humidity;BME280_pressure;Samples;Min_cycle;Max_cycle;Signal;HPM_P1;HPM_P2
2024/02/11 00:01:28;;;;;;;25.73;12.07;;;;;;;;;;7424167;19;19922;-79
2024/02/11 00:04:15;;;;;;;24.02;12.77;;;;;;;;;;7425811;19;19914;-79
2024/02/11 00:07:05;;;;;;;22.42;11.68;;;;;;;;;;7425109;19;19999;-79
2024/02/11 00:09:51;;;;;;;20.40;11.32;;;;;;;;;;7429798;19;19915;-79
2024/02/11 00:12:36;;;;;;;30.10;13.88;;;;;;;;;;7427535;19;19918;-79
2024/02/11 00:15:25;;;;;;;29.90;14.52;;;;;;;;;;7429121;19;20498;-79
2024/02/11 00:18:14;;;;;;;26.50;12.43;;;;;;;;;;7430664;19;19915;-79
2024/02/11 00:21:01;;;;;;;25.75;13.82;;;;;;;;;;7433020;19;19919;-80
2024/02/11 00:23:52;;;;;;;27.02;12.98;;;;;;;;;;7427193;19;19914;-80
2024/02/11 00:26:41;;;;;;;26.83;13.32;;;;;;;;;;7425325;19;19956;-80
2024/02/11 00:29:30;;;;;;;28.98;13.52;;;;;;;;;;7429750;19;19929;-80
2024/02/11 00:32:17;;;;;;;28.38;12.27;;;;;;;;;;7429438;19;19940;-80
2024/02/11 00:35:05;;;;;;;27.60;14.02;;;;;;;;;;7429067;19;19922;-80
2024/02/11 00:37:52;;;;;;;25.75;11.60;;;;;;;;;;7427567;19;19926;-80
2024/02/11 00:40:38;;;;;;;25.90;12.77;;;;;;;;;;7433939;19;19918;-80
2024/02/11 00:43:26;;;;;;;26.33;11.80;;;;;;;;;;7432239;19;19930;-80
2024/02/11 00:46:10;;;;;;;18.33;10.30;;;;;;;;;;7427411;19;19942;-79
2024/02/11 00:48:59;;;;;;;21.02;10.40;;;;;;;;;;7431333;19;19921;-79
2024/02/11 00:51:43;;;;;;;23.27;11.25;;;;;;;;;;7431541;19;19922;-79
2024/02/11 00:54:27;;;;;;;20.17;9.70;;;;;;;;;;7431543;19;20020;-79
2024/02/11 00:57:14;;;;;;;21.42;10.63;;;;;;;;;;7427603;19;19915;-79
2024/02/11 00:59:59;;;;;;;26.17;10.88;;;;;;;;;;7429167;19;19918;-80
2024/02/11 01:02:43;;;;;;;23.55;10.73;;;;;;;;;;7424217;19;19954;-80
2024/02/11 01:05:32;;;;;;;20.85;11.05;;;;;;;;;;7432217;19;20507;-80
2024/02/11 01:08:19;;;;;;;22.20;10.85;;;;;;;;;;7427252;19;19923;-80
2024/02/11 01:11:03;;;;;;;18.88;10.80;;;;;;;;;;7425987;19;19926;-79
2024/02/11 01:13:48;;;;;;;25.23;11.43;;;;;;;;;;7430785;19;19978;-80
2024/02/11 01:16:32;;;;;;;17.05;9.63;;;;;;;;;;7428956;19;19918;-80
2024/02/11 01:19:18;;;;;;;25.55;12.98;;;;;;;;;;7425246;19;19925;-80
2024/02/11 01:22:08;;;;;;;23.88;11.57;;;;;;;;;;7430199;19;19988;-80
2024/02/11 01:24:55;;;;;;;23.83;11.23;;;;;;;;;;7428124;19;20531;-79
2024/02/11 01:27:45;;;;;;;25.80;12.98;;;;;;;;;;7429413;19;20264;-79
2024/02/11 01:30:32;;;;;;;22.05;11.68;;;;;;;;;;7426278;19;19918;-79
2024/02/11 01:33:16;;;;;;;26.55;13.02;;;;;;;;;;7430222;19;19944;-79
2024/02/11 01:36:03;;;;;;;24.95;12.43;;;;;;;;;;7424885;19;19922;-79
2024/02/11 01:38:54;;;;;;;23.02;12.35;;;;;;;;;;7428795;19;19937;-79
2024/02/11 01:41:39;;;;;;;23.83;11.75;;;;;;;;;;7423393;19;20547;-79
2024/02/11 01:44:28;;;;;;;31.73;13.65;;;;;;;;;;7427931;19;19931;-79
2024/02/11 01:47:15;;;;;;;24.58;12.38;;;;;;;;;;7424038;19;19911;-79
2024/02/11 01:50:00;;;;;;;27.88;13.38;;;;;;;;;;7428078;19;19915;-80
2024/02/11 01:52:45;;;;;;;24.70;12.82;;;;;;;;;;7431155;19;19915;-80
2024/02/11 01:55:33;;;;;;;29.08;11.88;;;;;;;;;;7424848;19;19943;-80
2024/02/11 01:58:17;;;;;;;27.00;12.20;;;;;;;;;;7427164;19;19969;-80
2024/02/11 02:01:04;;;;;;;29.73;13.38;;;;;;;;;;7427625;19;19945;-80
2024/02/11 02:03:50;;;;;;;31.42;15.30;;;;;;;;;;7428457;19;20031;-80
2024/02/11 02:06:37;;;;;;;25.92;13.77;;;;;;;;;;7426898;19;19914;-80
2024/02/11 02:09:24;;;;;;;27.55;12.52;;;;;;;;;;7433434;19;19926;-80
2024/02/11 02:12:17;;;;;;;27.58;12.65;;;;;;;;;;7428755;19;19921;-80
2024/02/11 02:15:08;;;;;;;32.65;15.68;;;;;;;;;;7433589;19;19923;-80
2024/02/11 02:17:52;;;;;;;31.08;13.88;;;;;;;;;;7431100;19;19943;-80
2024/02/11 02:20:36;;;;;;;34.42;14.57;;;;;;;;;;7430942;19;19929;-80
2024/02/11 02:23:24;;;;;;;36.35;15.52;;;;;;;;;;7426366;19;20280;-80
2024/02/11 02:26:09;;;;;;;39.50;17.02;;;;;;;;;;7423270;19;19954;-80
2024/02/11 02:28:54;;;;;;;36.28;16.25;;;;;;;;;;7419584;19;19923;-80
2024/02/11 02:31:43;;;;;;;31.48;14.93;;;;;;;;;;7423796;19;19989;-80
2024/02/11 02:34:30;;;;;;;32.08;14.40;;;;;;;;;;7423216;19;19922;-79
2024/02/11 02:37:17;;;;;;;35.25;14.07;;;;;;;;;;7420830;19;19925;-79
2024/02/11 02:40:04;;;;;;;31.95;12.90;;;;;;;;;;7418670;19;19918;-79
2024/02/11 02:42:48;;;;;;;19.38;10.23;;;;;;;;;;7414728;19;19927;-79
2024/02/11 02:45:34;;;;;;;25.35;11.00;;;;;;;;;;7420370;19;19911;-79
2024/02/11 02:48:22;;;;;;;17.75;8.45;;;;;;;;;;7417600;19;19918;-79
2024/02/11 02:51:06;;;;;;;12.02;6.03;;;;;;;;;;7425124;19;19903;-79
2024/02/11 02:53:51;;;;;;;12.27;4.95;;;;;;;;;;7421280;19;19958;-80
2024/02/11 02:56:41;;;;;;;8.25;3.45;;;;;;;;;;7416393;19;19915;-79
2024/02/11 02:59:28;;;;;;;7.78;2.70;;;;;;;;;;7418562;19;20440;-79
2024/02/11 03:02:15;;;;;;;4.97;2.30;;;;;;;;;;7416142;19;19925;-79
2024/02/11 03:05:00;;;;;;;3.25;1.60;;;;;;;;;;7417417;19;19910;-79
2024/02/11 03:07:44;;;;;;;3.00;1.63;;;;;;;;;;7403697;19;19914;-79
2024/02/11 03:10:29;;;;;;;2.22;1.13;;;;;;;;;;7411383;19;19918;-79
2024/02/11 03:13:18;;;;;;;1.30;0.85;;;;;;;;;;7407713;19;19918;-79
2024/02/11 03:16:02;;;;;;;1.60;0.90;;;;;;;;;;7406592;19;20344;-79
2024/02/11 03:18:47;;;;;;;0.82;0.63;;;;;;;;;;7414803;19;19919;-79
2024/02/11 03:21:33;;;;;;;0.88;0.70;;;;;;;;;;7414059;19;20282;-79
2024/02/11 03:24:21;;;;;;;1.85;0.68;;;;;;;;;;7412323;19;19935;-79
2024/02/11 03:27:05;;;;;;;2.05;0.60;;;;;;;;;;7404252;19;19956;-79
2024/02/11 03:29:54;;;;;;;1.88;0.45;;;;;;;;;;7404618;19;19918;-79
2024/02/11 03:32:40;;;;;;;0.77;0.50;;;;;;;;;;7407619;19;19911;-79
2024/02/11 03:35:25;;;;;;;1.00;0.50;;;;;;;;;;7415718;19;19911;-79
2024/02/11 03:38:09;;;;;;;4.03;0.90;;;;;;;;;;7412119;19;19947;-79
2024/02/11 03:40:58;;;;;;;1.25;0.93;;;;;;;;;;7419776;19;19974;-79
2024/02/11 03:43:42;;;;;;;1.10;0.70;;;;;;;;;;7407026;19;20482;-81
2024/02/11 03:46:30;;;;;;;1.98;0.82;;;;;;;;;;7409216;19;19918;-81
2024/02/11 03:49:14;;;;;;;1.42;1.02;;;;;;;;;;7411087;19;20357;-81
2024/02/11 03:51:59;;;;;;;3.22;1.17;;;;;;;;;;7410386;19;19918;-82
2024/02/11 03:54:45;;;;;;;1.85;1.10;;;;;;;;;;7412426;19;20301;-82
2024/02/11 03:57:30;;;;;;;2.45;1.25;;;;;;;;;;7408705;19;19941;-82
2024/02/11 04:00:19;;;;;;;2.17;1.05;;;;;;;;;;7410566;19;19932;-82
2024/02/11 04:03:09;;;;;;;4.38;1.58;;;;;;;;;;7410319;19;20532;-82
2024/02/11 04:05:55;;;;;;;2.63;1.52;;;;;;;;;;7409545;19;19971;-82
2024/02/11 04:08:46;;;;;;;3.70;1.60;;;;;;;;;;7408959;19;19941;-82
2024/02/11 04:11:31;;;;;;;3.88;1.60;;;;;;;;;;7406095;19;19922;-82
2024/02/11 04:14:20;;;;;;;5.53;2.35;;;;;;;;;;7414201;19;19985;-82
2024/02/11 04:17:12;;;;;;;3.47;2.10;;;;;;;;;;7408750;19;20314;-82
2024/02/11 04:20:01;;;;;;;3.95;2.22;;;;;;;;;;7418038;19;20269;-82
2024/02/11 04:22:46;;;;;;;5.10;1.60;;;;;;;;;;7415484;19;19919;-82
2024/02/11 04:25:33;;;;;;;4.35;2.03;;;;;;;;;;7417934;19;19928;-82
2024/02/11 04:28:20;;;;;;;3.65;2.08;;;;;;;;;;7411451;19;19945;-82
2024/02/11 04:31:09;;;;;;;6.25;1.83;;;;;;;;;;7410416;19;19919;-81
2024/02/11 04:33:55;;;;;;;4.38;2.60;;;;;;;;;;7412741;19;19918;-82
2024/02/11 04:36:42;;;;;;;4.75;1.95;;;;;;;;;;7410217;19;19921;-82
2024/02/11 04:39:27;;;;;;;4.28;2.33;;;;;;;;;;7410770;19;19915;-82
2024/02/11 04:42:12;;;;;;;4.55;2.22;;;;;;;;;;7412025;19;19918;-82
2024/02/11 04:44:58;;;;;;;5.32;2.10;;;;;;;;;;7416214;19;19982;-83
2024/02/11 04:47:45;;;;;;;5.45;2.08;;;;;;;;;;7407725;19;20407;-82
2024/02/11 04:50:34;;;;;;;4.47;2.35;;;;;;;;;;7413398;19;19914;-82
2024/02/11 04:53:23;;;;;;;6.97;2.60;;;;;;;;;;7412130;19;20663;-82
2024/02/11 04:56:11;;;;;;;6.78;2.85;;;;;;;;;;7409622;19;20273;-82
2024/02/11 04:59:04;;;;;;;6.97;2.80;;;;;;;;;;7408765;19;19995;-82
2024/02/11 05:01:48;;;;;;;6.00;2.70;;;;;;;;;;7410499;19;20011;-82
2024/02/11 05:04:35;;;;;;;4.57;2.40;;;;;;;;;;7409909;19;19919;-83
2024/02/11 05:07:22;;;;;;;5.72;2.30;;;;;;;;;;7409356;19;19906;-83
2024/02/11 05:10:11;;;;;;;5.38;2.88;;;;;;;;;;7409562;19;20314;-83
2024/02/11 05:13:04;;;;;;;5.72;2.70;;;;;;;;;;7408283;19;19918;-82
2024/02/11 05:15:50;;;;;;;7.93;2.78;;;;;;;;;;7409034;19;19930;-82
2024/02/11 05:18:38;;;;;;;9.02;2.95;;;;;;;;;;7408881;19;19922;-82
2024/02/11 05:21:24;;;;;;;5.65;2.42;;;;;;;;;;7412611;19;19939;-82
2024/02/11 05:24:11;;;;;;;5.57;2.72;;;;;;;;;;7411954;19;20254;-82
2024/02/11 05:27:03;;;;;;;12.18;3.03;;;;;;;;;;7409078;19;19922;-82
2024/02/11 05:29:54;;;;;;;6.95;2.65;;;;;;;;;;7408623;19;19914;-82
2024/02/11 05:32:38;;;;;;;4.85;3.03;;;;;;;;;;7407241;19;20448;-82
2024/02/11 05:35:27;;;;;;;7.43;3.15;;;;;;;;;;7411987;19;19922;-82
2024/02/11 05:38:14;;;;;;;5.55;2.13;;;;;;;;;;7407729;19;19945;-82
2024/02/11 05:41:03;;;;;;;4.15;2.38;;;;;;;;;;7409795;19;19906;-82
2024/02/11 05:43:55;;;;;;;5.20;2.40;;;;;;;;;;7410714;19;19914;-82
2024/02/11 05:46:42;;;;;;;6.10;2.72;;;;;;;;;;7411384;19;19945;-82
2024/02/11 05:49:26;;;;;;;5.68;2.45;;;;;;;;;;7407617;19;19975;-82
2024/02/11 05:52:11;;;;;;;6.78;2.67;;;;;;;;;;7408884;19;19922;-82
2024/02/11 05:54:55;;;;;;;3.67;2.13;;;;;;;;;;7411935;19;19926;-82
2024/02/11 05:57:39;;;;;;;7.40;3.10;;;;;;;;;;7409471;19;19922;-82
2024/02/11 06:00:32;;;;;;;7.97;2.20;;;;;;;;;;7404325;19;19922;-82
2024/02/11 06:03:20;;;;;;;5.20;2.67;;;;;;;;;;7404499;19;19941;-81
2024/02/11 06:06:09;;;;;;;6.60;2.85;;;;;;;;;;7413381;19;19919;-82
2024/02/11 06:08:57;;;;;;;4.70;2.58;;;;;;;;;;7407501;19;20268;-81
2024/02/11 06:11:42;;;;;;;4.57;2.70;;;;;;;;;;7403262;19;20277;-82
2024/02/11 06:14:27;;;;;;;4.68;2.25;;;;;;;;;;7403028;19;19918;-82
2024/02/11 06:17:17;;;;;;;4.75;2.63;;;;;;;;;;7407200;19;20318;-83
2024/02/11 06:20:03;;;;;;;5.32;2.90;;;;;;;;;;7407820;19;19922;-82
2024/02/11 06:22:53;;;;;;;6.55;2.97;;;;;;;;;;7405486;19;19946;-82
2024/02/11 06:25:39;;;;;;;5.35;2.22;;;;;;;;;;7410133;19;19952;-83
2024/02/11 06:28:27;;;;;;;3.90;2.03;;;;;;;;;;7407281;19;19923;-83
2024/02/11 06:31:12;;;;;;;4.30;2.55;;;;;;;;;;7404641;19;19922;-82
2024/02/11 06:34:01;;;;;;;6.20;2.88;;;;;;;;;;7409669;19;19918;-81
2024/02/11 06:36:46;;;;;;;4.18;1.98;;;;;;;;;;7408226;19;19922;-82
2024/02/11 06:39:30;;;;;;;4.30;2.15;;;;;;;;;;7406827;19;19918;-82
2024/02/11 06:42:15;;;;;;;4.18;2.28;;;;;;;;;;7405194;19;19937;-83
2024/02/11 06:45:06;;;;;;;4.20;2.47;;;;;;;;;;7406893;19;19915;-82
2024/02/11 06:47:50;;;;;;;4.55;2.30;;;;;;;;;;7406094;19;20325;-83
2024/02/11 06:50:40;;;;;;;6.57;2.20;;;;;;;;;;7404453;19;19982;-82
2024/02/11 06:53:32;;;;;;;3.42;1.98;;;;;;;;;;7408584;19;19937;-82
2024/02/11 06:56:19;;;;;;;5.07;2.38;;;;;;;;;;7408502;19;19919;-82
2024/02/11 06:59:04;;;;;;;7.85;2.25;;;;;;;;;;7409394;19;19915;-82
2024/02/11 07:01:51;;;;;;;5.20;1.98;;;;;;;;;;7408529;19;19919;-82
2024/02/11 07:04:37;;;;;;;5.13;2.60;;;;;;;;;;7410969;19;19937;-83
2024/02/11 07:07:30;;;;;;;3.75;2.05;;;;;;;;;;7411925;19;19932;-83
2024/02/11 07:10:16;;;;;;;4.00;2.25;;;;;;;;;;7403177;19;19914;-82
2024/02/11 07:13:00;;;;;;;7.18;2.20;;;;;;;;;;7405551;19;20010;-82
2024/02/11 07:15:49;;;;;;;5.60;2.55;;;;;;;;;;7407475;19;19937;-82
2024/02/11 07:18:34;;;;;;;4.82;1.77;;;;;;;;;;7407495;19;19926;-82
2024/02/11 07:21:19;;;;;;;3.65;2.00;;;;;;;;;;7409090;19;20024;-82
2024/02/11 07:24:09;;;;;;;6.43;2.22;;;;;;;;;;7407249;19;19948;-83
2024/02/11 07:26:54;;;;;;;3.85;2.13;;;;;;;;;;7412103;19;20277;-83
2024/02/11 07:29:38;;;;;;;4.20;1.85;;;;;;;;;;7402929;19;20259;-82
2024/02/11 07:32:23;;;;;;;6.20;2.70;;;;;;;;;;7408197;19;20330;-82
2024/02/11 07:35:08;;;;;;;3.90;2.28;;;;;;;;;;7408251;19;19914;-82
2024/02/11 07:37:53;;;;;;;5.50;2.53;;;;;;;;;;7402589;19;19922;-82
2024/02/11 07:40:45;;;;;;;6.50;2.55;;;;;;;;;;7406653;19;20321;-82
2024/02/11 07:43:32;;;;;;;4.40;2.10;;;;;;;;;;7407626;19;19931;-82
2024/02/11 07:46:16;;;;;;;5.63;2.58;;;;;;;;;;7404748;19;19975;-82
2024/02/11 07:49:03;;;;;;;5.00;2.38;;;;;;;;;;7396318;19;19922;-82
2024/02/11 07:51:54;;;;;;;4.75;2.28;;;;;;;;;;7403330;19;19914;-82
2024/02/11 07:54:41;;;;;;;4.78;2.33;;;;;;;;;;7404293;19;20269;-82
2024/02/11 07:57:30;;;;;;;4.60;2.40;;;;;;;;;;7403913;19;19926;-84
2024/02/11 08:00:19;;;;;;;4.22;2.45;;;;;;;;;;7402644;19;19927;-83
2024/02/11 08:03:04;;;;;;;5.82;2.70;;;;;;;;;;7405898;19;19954;-83
2024/02/11 08:05:55;;;;;;;6.38;2.60;;;;;;;;;;7408223;19;19949;-83
2024/02/11 08:08:44;;;;;;;13.18;2.38;;;;;;;;;;7398516;19;19914;-82
2024/02/11 08:11:33;;;;;;;7.88;2.70;;;;;;;;;;7407542;19;19927;-83
2024/02/11 08:14:22;;;;;;;8.13;2.92;;;;;;;;;;7407640;19;19922;-83
2024/02/11 08:17:07;;;;;;;4.70;2.08;;;;;;;;;;7406198;19;20258;-83
2024/02/11 08:19:51;;;;;;;6.32;2.72;;;;;;;;;;7410051;19;20441;-82
2024/02/11 08:22:39;;;;;;;7.30;3.53;;;;;;;;;;7406497;19;19919;-82
2024/02/11 08:25:23;;;;;;;5.00;2.10;;;;;;;;;;7405558;19;20456;-82
2024/02/11 08:28:08;;;;;;;5.00;2.63;;;;;;;;;;7416494;19;19918;-82
2024/02/11 08:30:57;;;;;;;7.03;2.75;;;;;;;;;;7410563;19;19921;-82
2024/02/11 08:33:45;;;;;;;6.60;2.67;;;;;;;;;;7414113;19;20316;-82
2024/02/11 08:36:29;;;;;;;7.90;3.60;;;;;;;;;;7414108;19;19921;-82
2024/02/11 08:39:14;;;;;;;10.30;2.70;;;;;;;;;;7415756;19;19941;-82
2024/02/11 08:42:05;;;;;;;5.50;2.55;;;;;;;;;;7413221;19;19933;-82
2024/02/11 08:44:50;;;;;;;6.05;2.70;;;;;;;;;;7409996;19;19922;-82
2024/02/11 08:47:37;;;;;;;7.18;2.85;;;;;;;;;;7414484;19;20326;-82
2024/02/11 08:50:25;;;;;;;6.45;2.75;;;;;;;;;;7410527;19;20301;-82
2024/02/11 08:53:14;;;;;;;5.78;3.13;;;;;;;;;;7413946;19;19926;-81
2024/02/11 08:56:04;;;;;;;7.07;2.55;;;;;;;;;;7407797;19;19914;-81
2024/02/11 08:58:48;;;;;;;6.32;3.15;;;;;;;;;;7410254;19;19918;-82
2024/02/11 09:01:38;;;;;;;5.78;2.45;;;;;;;;;;7406851;19;19941;-81
2024/02/11 09:04:28;;;;;;;4.53;2.42;;;;;;;;;;7412169;19;19927;-81
2024/02/11 09:07:14;;;;;;;7.43;2.40;;;;;;;;;;7408432;19;19915;-82
2024/02/11 09:10:05;;;;;;;5.95;2.50;;;;;;;;;;7406362;19;19937;-82
2024/02/11 09:12:49;;;;;;;9.45;2.78;;;;;;;;;;7409843;19;19922;-81
2024/02/11 09:15:36;;;;;;;8.93;3.28;;;;;;;;;;7408113;19;19919;-81
2024/02/11 09:18:25;;;;;;;9.18;3.17;;;;;;;;;;7404039;19;19961;-81
2024/02/11 09:21:12;;;;;;;8.85;3.22;;;;;;;;;;7401284;19;19952;-82
2024/02/11 09:23:58;;;;;;;8.57;3.40;;;;;;;;;;7404328;19;19922;-82
2024/02/11 09:26:43;;;;;;;12.73;3.60;;;;;;;;;;7413128;19;20250;-82
2024/02/11 09:29:30;;;;;;;6.80;3.33;;;;;;;;;;7407369;19;19923;-82
2024/02/11 09:32:16;;;;;;;6.60;3.65;;;;;;;;;;7400188;19;19949;-82
2024/02/11 09:35:01;;;;;;;7.43;2.90;;;;;;;;;;7399375;19;19951;-82
2024/02/11 09:37:48;;;;;;;6.70;3.22;;;;;;;;;;7405889;19;19982;-82
2024/02/11 09:40:33;;;;;;;7.13;3.45;;;;;;;;;;7410345;19;19918;-82
2024/02/11 09:43:18;;;;;;;9.70;3.10;;;;;;;;;;7408365;19;20212;-82
2024/02/11 09:46:04;;;;;;;7.80;2.83;;;;;;;;;;7428020;19;20151;-82
2024/02/11 09:48:53;;;;;;;6.13;2.67;;;;;;;;;;7427933;19;19954;-82
2024/02/11 09:51:38;;;;;;;8.52;3.08;;;;;;;;;;7429027;19;19987;-82
2024/02/11 09:54:28;;;;;;;10.07;3.10;;;;;;;;;;7422183;19;19937;-82
2024/02/11 09:57:14;;;;;;;6.47;3.10;;;;;;;;;;7426916;19;20042;-82
2024/02/11 09:59:59;;;;;;;9.68;3.10;;;;;;;;;;7430122;19;19952;-82
2024/02/11 10:02:49;;;;;;;5.85;3.35;;;;;;;;;;7430206;19;19987;-82
2024/02/11 10:05:35;;;;;;;6.55;3.25;;;;;;;;;;7427530;19;19923;-82
2024/02/11 10:08:24;;;;;;;6.25;2.80;;;;;;;;;;7429957;19;19926;-81
2024/02/11 10:11:15;;;;;;;11.70;2.92;;;;;;;;;;7427757;19;19926;-82
2024/02/11 10:14:00;;;;;;;6.72;2.65;;;;;;;;;;7430725;19;19931;-82
2024/02/11 10:16:45;;;;;;;6.93;2.92;;;;;;;;;;7428158;19;19919;-82
2024/02/11 10:19:32;;;;;;;8.32;3.28;;;;;;;;;;7429081;19;19926;-82
2024/02/11 10:22:17;;;;;;;5.93;2.55;;;;;;;;;;7432002;19;20002;-82
2024/02/11 10:25:02;;;;;;;4.07;2.55;;;;;;;;;;7430888;19;19970;-82
2024/02/11 10:27:52;;;;;;;8.27;2.78;;;;;;;;;;7429721;19;19933;-82
2024/02/11 10:30:41;;;;;;;8.90;2.95;;;;;;;;;;7428170;19;19926;-82
2024/02/11 10:33:25;;;;;;;4.72;2.70;;;;;;;;;;7432374;19;19915;-82
2024/02/11 10:36:14;;;;;;;8.32;2.92;;;;;;;;;;7432258;19;19922;-82
2024/02/11 10:39:05;;;;;;;5.82;2.67;;;;;;;;;;7430113;19;19919;-82
2024/02/11 10:41:52;;;;;;;10.27;2.60;;;;;;;;;;7427741;19;19918;-82
2024/02/11 10:44:40;;;;;;;5.63;2.50;;;;;;;;;;7429133;19;19985;-82
2024/02/11 10:47:24;;;;;;;9.35;3.03;;;;;;;;;;7430795;19;19915;-82
2024/02/11 10:50:13;;;;;;;6.88;2.67;;;;;;;;;;7424955;19;19918;-82
2024/02/11 10:53:04;;;;;;;4.20;2.40;;;;;;;;;;7428902;19;19922;-82
2024/02/11 10:55:52;;;;;;;3.85;2.40;;;;;;;;;;7429699;19;19922;-82
2024/02/11 10:58:47;;;;;;;6.32;2.70;;;;;;;;;;7428671;19;19951;-82
2024/02/11 11:01:34;;;;;;;6.55;2.85;;;;;;;;;;7431983;19;19935;-82
2024/02/11 11:04:25;;;;;;;6.85;2.88;;;;;;;;;;7431635;19;19914;-82
2024/02/11 11:07:12;;;;;;;4.25;2.10;;;;;;;;;;7432345;19;19922;-82
2024/02/11 11:10:00;;;;;;;5.90;2.78;;;;;;;;;;7426785;19;19959;-82
2024/02/11 11:12:50;;;;;;;7.43;2.63;;;;;;;;;;7425662;19;19928;-82
2024/02/11 11:15:35;;;;;;;5.95;2.75;;;;;;;;;;7423986;19;19911;-82
2024/02/11 11:18:24;;;;;;;5.88;2.38;;;;;;;;;;7429035;19;19943;-82
2024/02/11 11:21:18;;;;;;;7.60;2.72;;;;;;;;;;7424633;19;19955;-82
2024/02/11 11:24:05;;;;;;;4.75;2.85;;;;;;;;;;7425849;19;19915;-82
2024/02/11 11:26:52;;;;;;;6.22;2.28;;;;;;;;;;7427625;19;19959;-82
2024/02/11 11:29:39;;;;;;;7.55;2.45;;;;;;;;;;7427319;19;19918;-82
2024/02/11 11:32:30;;;;;;;7.68;2.67;;;;;;;;;;7421524;19;19930;-83
2024/02/11 11:35:21;;;;;;;8.70;2.42;;;;;;;;;;7423030;19;19911;-82
2024/02/11 11:38:08;;;;;;;5.10;1.70;;;;;;;;;;7423657;19;19970;-82
2024/02/11 11:40:56;;;;;;;4.63;2.20;;;;;;;;;;7429825;19;19919;-82
2024/02/11 11:43:43;;;;;;;5.40;2.58;;;;;;;;;;7427781;19;19922;-82
2024/02/11 11:46:37;;;;;;;3.88;2.03;;;;;;;;;;7425760;19;20288;-82
2024/02/11 11:49:21;;;;;;;6.47;2.22;;;;;;;;;;7422877;19;19919;-83
2024/02/11 11:52:11;;;;;;;3.33;1.98;;;;;;;;;;7426168;19;19925;-83
2024/02/11 11:54:56;;;;;;;3.63;2.42;;;;;;;;;;7422983;19;19915;-82
2024/02/11 11:57:45;;;;;;;5.28;2.40;;;;;;;;;;7425106;19;19960;-83
2024/02/11 12:00:31;;;;;;;6.40;2.33;;;;;;;;;;7425624;19;19929;-83
2024/02/11 12:03:16;;;;;;;6.47;2.55;;;;;;;;;;7435581;19;19910;-83
2024/02/11 12:06:03;;;;;;;6.57;2.50;;;;;;;;;;7431241;19;19923;-82
2024/02/11 12:08:49;;;;;;;5.63;2.10;;;;;;;;;;7432406;19;19970;-82
2024/02/11 12:11:37;;;;;;;4.28;2.63;;;;;;;;;;7433176;19;19919;-82
2024/02/11 12:14:22;;;;;;;4.93;2.00;;;;;;;;;;7434131;19;19929;-82
2024/02/11 12:17:09;;;;;;;3.55;1.80;;;;;;;;;;7432310;19;19918;-82
2024/02/11 12:19:56;;;;;;;6.85;2.50;;;;;;;;;;7427658;19;19918;-82
2024/02/11 12:22:42;;;;;;;6.03;2.60;;;;;;;;;;7431191;19;19914;-82
2024/02/11 12:25:31;;;;;;;5.55;2.35;;;;;;;;;;7432650;19;20338;-83
2024/02/11 12:28:25;;;;;;;9.13;2.80;;;;;;;;;;7428670;19;19911;-83
2024/02/11 12:31:12;;;;;;;7.38;2.90;;;;;;;;;;7424915;19;19923;-82
2024/02/11 12:33:59;;;;;;;7.03;2.60;;;;;;;;;;7426330;19;19999;-82
2024/02/11 12:36:43;;;;;;;6.88;3.05;;;;;;;;;;7422957;19;19950;-83
2024/02/11 12:39:31;;;;;;;4.32;2.50;;;;;;;;;;7426850;19;19911;-83
2024/02/11 12:42:20;;;;;;;5.13;2.72;;;;;;;;;;7424330;19;19948;-83
2024/02/11 12:45:04;;;;;;;7.32;2.25;;;;;;;;;;7433866;19;19918;-83
2024/02/11 12:47:49;;;;;;;5.82;2.17;;;;;;;;;;7429367;19;20627;-83
2024/02/11 12:50:33;;;;;;;5.40;2.72;;;;;;;;;;7431513;19;19903;-83
2024/02/11 12:53:18;;;;;;;8.25;2.60;;;;;;;;;;7433102;19;20292;-82
2024/02/11 12:56:05;;;;;;;4.75;2.30;;;;;;;;;;7432819;19;19919;-83
2024/02/11 12:58:54;;;;;;;5.93;2.40;;;;;;;;;;7434511;19;20235;-84
2024/02/11 13:01:41;;;;;;;7.88;2.50;;;;;;;;;;7431253;19;19970;-83
2024/02/11 13:04:28;;;;;;;7.28;2.10;;;;;;;;;;7425590;19;19918;-81
2024/02/11 13:07:12;;;;;;;6.35;2.30;;;;;;;;;;7426535;19;19907;-81
2024/02/11 13:09:56;;;;;;;8.82;2.40;;;;;;;;;;7426667;19;19932;-81
2024/02/11 13:12:45;;;;;;;7.60;2.63;;;;;;;;;;7422448;19;19923;-82
2024/02/11 13:15:33;;;;;;;6.50;2.35;;;;;;;;;;7426484;19;19950;-82
2024/02/11 13:18:18;;;;;;;3.90;1.98;;;;;;;;;;7427557;19;19917;-81
2024/02/11 13:21:09;;;;;;;7.28;2.45;;;;;;;;;;7430538;19;19989;-81
2024/02/11 13:23:54;;;;;;;5.20;2.13;;;;;;;;;;7429511;19;19978;-81
2024/02/11 13:26:40;;;;;;;7.65;2.10;;;;;;;;;;7429071;19;19931;-81
2024/02/11 13:29:27;;;;;;;4.32;2.03;;;;;;;;;;7429096;19;19934;-81
2024/02/11 13:32:17;;;;;;;6.05;2.20;;;;;;;;;;7427251;19;19926;-81
2024/02/11 13:35:01;;;;;;;5.47;1.83;;;;;;;;;;7426957;19;19919;-81
2024/02/11 13:37:48;;;;;;;8.00;2.30;;;;;;;;;;7425016;19;19922;-81
2024/02/11 13:40:35;;;;;;;2.78;1.70;;;;;;;;;;7427919;19;19906;-81
2024/02/11 13:43:22;;;;;;;5.95;1.88;;;;;;;;;;7425676;19;19926;-80
2024/02/11 13:46:12;;;;;;;4.15;1.92;;;;;;;;;;7427702;19;19917;-80
2024/02/11 13:49:01;;;;;;;3.13;2.00;;;;;;;;;;7430605;19;19913;-80
2024/02/11 13:51:48;;;;;;;5.20;1.77;;;;;;;;;;7427377;19;19978;-80
2024/02/11 13:54:35;;;;;;;6.55;1.80;;;;;;;;;;7428242;19;19918;-80
2024/02/11 13:57:21;;;;;;;6.00;2.00;;;;;;;;;;7430096;19;19906;-81
2024/02/11 14:00:12;;;;;;;3.67;1.88;;;;;;;;;;7429946;19;19918;-81
2024/02/11 14:02:59;;;;;;;4.65;1.77;;;;;;;;;;7429273;19;20288;-81
2024/02/11 14:05:46;;;;;;;2.60;1.80;;;;;;;;;;7430024;19;20353;-81
2024/02/11 14:08:32;;;;;;;2.95;1.73;;;;;;;;;;7427350;19;19938;-81
2024/02/11 14:11:16;;;;;;;3.67;1.80;;;;;;;;;;7429290;19;19921;-81
2024/02/11 14:14:00;;;;;;;6.40;1.65;;;;;;;;;;7427164;19;20422;-81
2024/02/11 14:16:50;;;;;;;3.65;1.48;;;;;;;;;;7427748;19;19954;-81
2024/02/11 14:19:39;;;;;;;2.88;2.00;;;;;;;;;;7429416;19;19941;-81
2024/02/11 14:22:28;;;;;;;5.20;1.90;;;;;;;;;;7430880;19;19925;-81
2024/02/11 14:25:18;;;;;;;2.90;1.77;;;;;;;;;;7425195;19;19922;-81
2024/02/11 14:28:06;;;;;;;2.05;1.33;;;;;;;;;;7426453;19;19915;-81
2024/02/11 14:30:53;;;;;;;3.55;1.50;;;;;;;;;;7427909;19;19950;-81
2024/02/11 14:33:37;;;;;;;5.00;1.60;;;;;;;;;;7428457;19;19918;-81
2024/02/11 14:36:22;;;;;;;3.78;2.10;;;;;;;;;;7428605;19;19927;-81
2024/02/11 14:39:12;;;;;;;4.70;1.70;;;;;;;;;;7427476;19;19930;-81
2024/02/11 14:41:57;;;;;;;2.33;2.00;;;;;;;;;;7428974;19;19932;-81
2024/02/11 14:44:45;;;;;;;5.38;1.70;;;;;;;;;;7426148;19;19951;-81
2024/02/11 14:47:32;;;;;;;2.72;1.50;;;;;;;;;;7426808;19;19930;-81
2024/02/11 14:50:19;;;;;;;3.70;1.55;;;;;;;;;;7430036;19;19915;-81
2024/02/11 14:53:08;;;;;;;5.45;1.70;;;;;;;;;;7428390;19;20022;-81
2024/02/11 14:55:59;;;;;;;3.55;1.77;;;;;;;;;;7429098;19;19972;-81
2024/02/11 14:58:45;;;;;;;3.55;2.40;;;;;;;;;;7420861;19;19918;-81
2024/02/11 15:01:29;;;;;;;2.78;1.65;;;;;;;;;;7428948;19;19948;-81
2024/02/11 15:04:16;;;;;;;6.07;1.70;;;;;;;;;;7428878;19;19922;-81
2024/02/11 15:07:02;;;;;;;4.85;2.00;;;;;;;;;;7426599;19;19917;-81
2024/02/11 15:09:55;;;;;;;3.35;1.58;;;;;;;;;;7425782;19;19914;-81
2024/02/11 15:12:44;;;;;;;3.35;2.00;;;;;;;;;;7425438;19;19926;-81
2024/02/11 15:15:30;;;;;;;4.38;1.63;;;;;;;;;;7426122;19;19911;-81
2024/02/11 15:18:18;;;;;;;;;;;;;;;;;;7429599;19;19913;-81
2024/02/11 15:21:09;;;;;;;;;;;;;;;;;;7427820;19;19918;-81
2024/02/11 15:23:58;;;;;;;2.45;1.30;;;;;;;;;;7428704;19;19922;-81
2024/02/11 15:26:45;;;;;;;1.48;1.02;;;;;;;;;;7425617;19;20293;-81
2024/02/11 15:29:32;;;;;;;3.13;1.58;;;;;;;;;;7425303;19;19922;-81
2024/02/11 15:32:17;;;;;;;2.90;1.65;;;;;;;;;;7426460;19;19938;-81
2024/02/11 15:35:07;;;;;;;5.85;1.45;;;;;;;;;;7433261;19;19914;-81
2024/02/11 15:37:52;;;;;;;2.75;1.20;;;;;;;;;;7439370;19;19914;-81
2024/02/11 15:40:36;;;;;;;2.60;1.42;;;;;;;;;;7440626;19;19955;-81
2024/02/11 15:46:23;;;;;;;2.65;1.10;;;;;;;;;;7425121;19;19918;-81
2024/02/11 15:49:07;;;;;;;3.88;1.60;;;;;;;;;;7422186;19;19914;-80
2024/02/11 15:51:52;;;;;;;2.90;1.50;;;;;;;;;;7423657;19;20628;-81
2024/02/11 15:54:36;;;;;;;3.33;1.13;;;;;;;;;;7422723;19;20027;-81
2024/02/11 15:57:23;;;;;;;1.55;1.10;;;;;;;;;;7424540;19;19911;-80
2024/02/11 16:00:10;;;;;;;5.05;1.42;;;;;;;;;;7422425;19;19929;-81
2024/02/11 16:02:59;;;;;;;2.85;1.27;;;;;;;;;;7423732;19;19933;-81
2024/02/11 16:05:44;;;;;;;2.53;1.13;;;;;;;;;;7424026;19;19914;-81
2024/02/11 16:08:32;;;;;;;3.15;1.35;;;;;;;;;;7421395;19;19922;-81
2024/02/11 16:11:17;;;;;;;4.05;1.38;;;;;;;;;;7422636;19;20281;-81
2024/02/11 16:14:05;;;;;;;1.77;1.27;;;;;;;;;;7421759;19;20361;-81
2024/02/11 16:16:49;;;;;;;3.10;1.58;;;;;;;;;;7423483;19;19932;-81
2024/02/11 16:19:38;;;;;;;3.85;1.27;;;;;;;;;;7422449;19;19937;-81
2024/02/11 16:22:27;;;;;;;4.00;1.33;;;;;;;;;;7423239;19;19937;-81
2024/02/11 16:25:17;;;;;;;2.05;1.13;;;;;;;;;;7421715;19;19915;-81
2024/02/11 16:28:06;;;;;;;3.45;1.08;;;;;;;;;;7422517;19;20325;-81
2024/02/11 16:30:56;;;;;;;3.88;1.30;;;;;;;;;;7421572;19;19922;-81
2024/02/11 16:33:40;;;;;;;1.63;1.05;;;;;;;;;;7421613;19;19923;-81
2024/02/11 16:36:27;;;;;;;3.30;1.50;;;;;;;;;;7418572;19;19923;-81
2024/02/11 16:39:12;;;;;;;2.75;1.20;;;;;;;;;;7420867;19;20277;-81